Time;durP1;ratioP1;P1;durP2;ratioP2;P2;SDS_P1;SDS_P2;PMS_P1;PMS_P2;Temp;Humidity;BMP_temperature;BMP_pressure;BME280_temperature;BME280_humidity;BME280_pressure;Samples;Min_cycle;Max_cycle;Signal;HPM_P1;HPM_P2
2022/08/24 00:04:19;;;;;;;9.05;6.10;;;23.30;91.10;;;;;;10451723;28;20461;-60
2022/08/24 00:09:20;;;;;;;7.60;6.20;;;23.30;91.10;;;;;;10449034;28;20033;-61
2022/08/24 00:14:20;;;;;;;9.50;5.88;;;23.30;91.20;;;;;;10455130;28;20393;-62
2022/08/24 00:19:21;;;;;;;7.75;5.20;;;23.20;91.20;;;;;;10446085;28;20033;-62
2022/08/24 00:24:22;;;;;;;7.53;5.65;;;23.20;91.20;;;;;;10453280;28;20281;-61
2022/08/24 00:29:23;;;;;;;7.88;6.40;;;23.20;91.20;;;;;;10428449;28;20037;-61
2022/08/24 00:34:26;;;;;;;7.35;5.78;;;23.20;91.30;;;;;;10452675;28;20043;-61
2022/08/24 00:39:27;;;;;;;9.90;6.25;;;23.20;91.60;;;;;;10446565;28;20143;-61
2022/08/24 00:44:28;;;;;;;6.78;5.68;;;23.10;91.30;;;;;;10426971;28;20029;-62
2022/08/24 00:49:45;;;;;;;10.10;5.75;;;23.10;91.40;;;;;;10443687;28;20044;-61
2022/08/24 00:54:50;;;;;;;8.18;6.28;;;23.10;91.40;;;;;;10449833;28;20027;-62
2022/08/24 00:59:54;;;;;;;7.65;5.93;;;23.10;91.40;;;;;;10437919;28;20033;-61
2022/08/24 01:04:59;;;;;;;7.72;5.95;;;23.00;91.40;;;;;;10449100;28;20014;-61
2022/08/24 01:10:09;;;;;;;7.50;6.00;;;23.00;91.40;;;;;;10450647;28;20052;-61
2022/08/24 01:15:10;;;;;;;8.18;6.28;;;23.00;91.50;;;;;;10439464;28;20024;-61
2022/08/24 01:20:12;;;;;;;9.32;6.20;;;23.00;91.50;;;;;;10444827;28;20457;-61
2022/08/24 01:25:14;;;;;;;8.82;5.95;;;22.90;91.50;;;;;;10438102;28;20095;-61
2022/08/24 01:30:16;;;;;;;8.65;6.47;;;22.90;91.50;;;;;;10446171;28;20056;-60
2022/08/24 01:35:17;;;;;;;7.85;6.60;;;22.90;91.50;;;;;;10428906;28;20028;-61
2022/08/24 01:40:19;;;;;;;7.97;6.07;;;22.90;91.60;;;;;;10449331;28;20060;-62
2022/08/24 01:45:21;;;;;;;9.82;6.43;;;22.90;91.60;;;;;;10440774;28;20108;-62
2022/08/24 01:50:21;;;;;;;7.18;6.10;;;22.80;91.60;;;;;;10455350;28;20203;-62
2022/08/24 01:55:22;;;;;;;7.28;5.90;;;22.80;91.80;;;;;;10427384;28;20037;-61
2022/08/24 02:00:23;;;;;;;6.45;5.50;;;22.80;91.60;;;;;;10444989;28;20519;-62
2022/08/24 02:05:24;;;;;;;7.28;5.80;;;22.80;91.60;;;;;;10445223;28;20028;-61
2022/08/24 02:10:27;;;;;;;8.10;6.65;;;22.70;91.60;;;;;;10452015;28;20094;-62
2022/08/24 02:15:36;;;;;;;8.10;6.50;;;22.70;91.60;;;;;;10442588;28;20036;-61
2022/08/24 02:20:37;;;;;;;8.68;6.63;;;22.70;92.00;;;;;;10444810;28;20036;-62
2022/08/24 02:25:38;;;;;;;8.02;6.45;;;22.60;91.70;;;;;;10421882;28;20025;-62
2022/08/24 02:30:39;;;;;;;8.10;6.28;;;22.60;91.70;;;;;;10438335;28;20048;-62
2022/08/24 02:35:41;;;;;;;7.88;6.63;;;22.60;91.70;;;;;;10433935;28;20039;-61
2022/08/24 02:40:42;;;;;;;8.75;6.20;;;22.60;91.70;;;;;;10441338;28;20048;-62
2022/08/24 02:45:45;;;;;;;7.38;6.60;;;22.60;91.70;;;;;;10449055;28;20020;-61
2022/08/24 02:50:49;;;;;;;8.35;6.55;;;22.50;91.70;;;;;;10449048;28;20036;-61
2022/08/24 02:55:49;;;;;;;8.38;6.80;;;22.50;91.70;;;;;;10446093;28;21377;-61
2022/08/24 03:00:50;;;;;;;9.02;6.32;;;22.50;91.70;;;;;;10447317;28;20039;-61
2022/08/24 03:05:51;;;;;;;8.15;6.15;;;22.50;91.80;;;;;;10449675;28;20027;-61
2022/08/24 03:10:51;;;;;;;6.93;6.07;;;22.50;91.80;;;;;;10447877;28;20033;-61
2022/08/24 03:15:54;;;;;;;7.32;6.05;;;22.40;91.70;;;;;;10440812;28;20036;-61
2022/08/24 03:20:57;;;;;;;8.18;6.28;;;22.40;92.00;;;;;;10448008;28;20386;-61
2022/08/24 03:25:58;;;;;;;6.60;5.75;;;22.40;91.80;;;;;;10447430;28;20028;-61
2022/08/24 03:30:59;;;;;;;6.22;5.63;;;22.40;91.80;;;;;;10451659;28;20400;-61
2022/08/24 03:35:59;;;;;;;6.70;5.90;;;22.30;91.80;;;;;;10455536;28;20119;-61
2022/08/24 03:41:00;;;;;;;6.15;5.55;;;22.30;91.80;;;;;;10443728;28;20056;-61
2022/08/24 03:46:04;;;;;;;7.13;5.80;;;22.30;92.10;;;;;;10447410;28;20993;-61
2022/08/24 03:51:05;;;;;;;6.50;5.90;;;22.30;91.80;;;;;;10443307;28;20485;-61
2022/08/24 03:56:07;;;;;;;6.60;5.63;;;22.30;91.80;;;;;;10447583;28;20041;-61
2022/08/24 04:01:09;;;;;;;8.25;5.63;;;22.30;91.80;;;;;;10443786;28;20024;-61
2022/08/24 04:06:12;;;;;;;9.65;5.95;;;22.20;91.80;;;;;;10440746;28;20025;-61
2022/08/24 04:11:23;;;;;;;8.55;5.95;;;22.20;91.90;;;;;;10438954;28;20497;-61
2022/08/24 04:16:25;;;;;;;6.47;5.88;;;22.20;91.90;;;;;;10451977;28;20478;-61
2022/08/24 04:21:32;;;;;;;7.13;5.60;;;22.10;91.90;;;;;;10440772;28;20091;-61
2022/08/24 04:26:34;;;;;;;7.55;5.68;;;22.10;91.90;;;;;;10450120;28;20020;-61
2022/08/24 04:31:39;;;;;;;8.45;5.88;;;22.10;91.90;;;;;;10453568;28;20063;-61
2022/08/24 04:36:42;;;;;;;8.10;6.78;;;22.10;91.90;;;;;;10449290;28;20103;-61
2022/08/24 04:41:43;;;;;;;6.45;5.78;;;22.10;91.90;;;;;;10454207;28;20020;-61
2022/08/24 04:46:43;;;;;;;6.28;5.68;;;22.00;91.90;;;;;;10445742;28;20039;-62
2022/08/24 04:51:44;;;;;;;6.20;5.57;;;22.00;91.90;;;;;;10453253;28;20474;-61
2022/08/24 04:56:46;;;;;;;6.85;6.18;;;22.00;91.90;;;;;;10422357;28;20051;-61
2022/08/24 05:01:47;;;;;;;6.97;5.70;;;22.00;91.90;;;;;;10360070;28;20455;-61
2022/08/24 05:06:47;;;;;;;6.20;5.60;;;22.00;91.90;;;;;;10380100;28;20049;-61
2022/08/24 05:11:48;;;;;;;7.53;5.60;;;22.00;91.90;;;;;;10344985;28;20060;-61
2022/08/24 05:16:49;;;;;;;5.95;5.28;;;22.00;91.90;;;;;;10382010;28;20151;-61
2022/08/24 05:21:50;;;;;;;6.95;5.65;;;22.00;91.90;;;;;;10374583;28;20028;-61
2022/08/24 05:26:51;;;;;;;7.00;5.30;;;21.90;91.80;;;;;;10376296;28;20281;-61
2022/08/24 05:31:53;;;;;;;6.78;5.55;;;22.00;91.90;;;;;;10378994;28;20511;-61
2022/08/24 05:36:53;;;;;;;7.40;6.05;;;21.90;91.80;;;;;;10377925;28;20445;-61
2022/08/24 05:41:54;;;;;;;6.90;5.95;;;21.90;91.90;;;;;;10374128;28;20337;-61
2022/08/24 05:46:57;;;;;;;8.32;6.03;;;21.90;91.80;;;;;;10371093;28;20095;-61
2022/08/24 05:51:57;;;;;;;7.05;5.97;;;22.00;91.90;;;;;;10368953;28;20147;-61
2022/08/24 05:57:03;;;;;;;6.90;5.90;;;22.00;91.90;;;;;;10363656;28;20041;-64
2022/08/24 06:02:04;;;;;;;7.63;5.70;;;21.90;91.90;;;;;;10357700;28;20048;-64
2022/08/24 06:07:09;;;;;;;8.07;5.50;;;21.90;91.90;;;;;;10361371;28;20082;-64
2022/08/24 06:12:11;;;;;;;7.68;5.40;;;21.90;92.00;;;;;;10344955;28;20535;-64
2022/08/24 06:17:11;;;;;;;7.40;5.60;;;21.90;92.00;;;;;;10355755;28;20049;-64
2022/08/24 06:22:12;;;;;;;7.10;5.68;;;21.90;92.00;;;;;;10356411;28;20066;-64
2022/08/24 06:27:20;;;;;;;8.35;6.30;;;22.00;92.00;;;;;;10362954;28;20124;-64
2022/08/24 06:32:21;;;;;;;7.68;6.03;;;22.00;92.10;;;;;;10356893;28;20472;-64
2022/08/24 06:37:25;;;;;;;7.57;6.10;;;22.00;92.10;;;;;;10375074;28;20049;-65
2022/08/24 06:42:28;;;;;;;8.73;6.40;;;22.00;92.10;;;;;;10362967;28;20056;-64
2022/08/24 06:47:28;;;;;;;8.48;5.90;;;22.00;92.10;;;;;;10363983;28;20049;-64
2022/08/24 06:52:30;;;;;;;8.85;6.28;;;22.00;92.10;;;;;;10366895;28;20584;-62
2022/08/24 06:57:30;;;;;;;7.53;6.28;;;22.00;92.20;;;;;;10366532;28;20045;-65
2022/08/24 07:02:32;;;;;;;7.10;6.05;;;22.00;92.20;;;;;;10363127;28;20135;-64
2022/08/24 07:07:33;;;;;;;7.97;6.40;;;22.00;92.10;;;;;;10366029;28;20290;-65
2022/08/24 07:12:35;;;;;;;9.15;6.53;;;22.00;92.10;;;;;;10353968;28;20112;-65
2022/08/24 07:17:36;;;;;;;7.15;6.32;;;22.10;92.10;;;;;;10354198;28;20481;-65
2022/08/24 07:22:36;;;;;;;7.50;6.00;;;22.10;92.10;;;;;;10361455;28;20494;-65
2022/08/24 07:27:38;;;;;;;6.82;6.00;;;22.10;92.00;;;;;;10361671;28;20547;-65
2022/08/24 07:32:39;;;;;;;7.60;6.50;;;22.20;92.00;;;;;;10359314;28;20378;-65
2022/08/24 07:37:39;;;;;;;7.60;5.97;;;22.20;92.00;;;;;;10343925;28;20038;-65
2022/08/24 07:42:41;;;;;;;6.75;5.88;;;22.30;92.00;;;;;;10310330;28;20541;-65
2022/08/24 07:47:42;;;;;;;6.03;5.43;;;22.30;92.00;;;;;;10312627;28;20045;-65
2022/08/24 07:52:44;;;;;;;6.85;6.15;;;22.30;92.00;;;;;;10299271;28;20296;-65
2022/08/24 07:57:45;;;;;;;7.32;5.82;;;22.30;92.00;;;;;;10322535;28;20025;-65
2022/08/24 08:02:46;;;;;;;8.52;6.57;;;22.40;92.00;;;;;;10314095;28;20193;-65
2022/08/24 08:07:47;;;;;;;8.23;6.15;;;22.40;92.00;;;;;;10318003;28;20147;-63
2022/08/24 08:12:48;;;;;;;8.13;5.50;;;22.40;92.00;;;;;;10317102;28;20403;-64
2022/08/24 08:17:49;;;;;;;8.43;6.10;;;22.40;91.90;;;;;;10311892;28;20040;-64
2022/08/24 08:28:10;;;;;;;6.55;5.78;;;22.60;91.90;;;;;;10320012;28;20140;-64
2022/08/24 08:33:11;;;;;;;9.18;6.43;;;22.60;91.90;;;;;;10318469;28;20856;-64
2022/08/24 08:38:12;;;;;;;6.97;5.82;;;22.70;91.90;;;;;;10320734;28;20429;-64
2022/08/24 08:43:31;;;;;;;7.32;6.10;;;22.70;91.90;;;;;;10326969;28;20363;-64
2022/08/24 08:48:59;;;;;;;7.70;6.22;;;22.70;92.10;;;;;;10324578;28;20398;-64
2022/08/24 08:54:25;;;;;;;8.20;5.78;;;22.80;92.00;;;;;;10317893;28;20580;-64
2022/08/24 08:59:31;;;;;;;7.13;5.72;;;22.80;92.00;;;;;;10318667;28;20122;-64
2022/08/24 09:04:41;;;;;;;7.18;5.53;;;22.90;91.90;;;;;;10322246;28;20045;-61
2022/08/24 09:10:22;;;;;;;8.73;5.40;;;22.90;91.90;;;;;;10319412;28;20052;-64
2022/08/24 09:15:48;;;;;;;7.75;5.55;;;23.00;92.00;;;;;;10319660;28;20045;-64
2022/08/24 09:21:07;;;;;;;8.05;5.30;;;23.00;91.80;;;;;;10323701;28;20738;-64
2022/08/24 09:26:18;;;;;;;5.18;4.68;;;23.10;92.00;;;;;;10321279;28;20041;-65
2022/08/24 09:31:56;;;;;;;6.63;4.57;;;23.20;91.90;;;;;;10320994;28;20509;-64
2022/08/24 09:37:26;;;;;;;5.35;4.85;;;23.20;91.90;;;;;;10321585;28;20048;-64
2022/08/24 09:42:45;;;;;;;5.80;4.78;;;23.30;91.80;;;;;;10362880;28;20040;-64
2022/08/24 09:48:03;;;;;;;4.68;4.03;;;23.30;91.70;;;;;;10361362;28;20045;-64
2022/08/24 09:53:31;;;;;;;5.68;4.38;;;23.40;91.70;;;;;;10361724;28;20555;-63
2022/08/24 09:58:46;;;;;;;4.88;3.80;;;23.50;91.80;;;;;;10356408;28;20040;-63
2022/08/24 10:04:07;;;;;;;4.95;3.80;;;23.60;91.70;;;;;;10356043;28;20032;-63
2022/08/24 10:09:11;;;;;;;4.32;3.92;;;23.60;91.60;;;;;;10359319;28;20192;-63
2022/08/24 10:14:42;;;;;;;6.03;4.10;;;23.70;91.50;;;;;;10359909;28;20110;-64
2022/08/24 10:19:51;;;;;;;5.22;4.10;;;23.70;91.60;;;;;;10364205;28;21116;-63
2022/08/24 10:25:08;;;;;;;4.80;3.47;;;23.80;91.50;;;;;;10360009;28;20461;-63
2022/08/24 10:30:39;;;;;;;5.13;3.85;;;23.90;91.60;;;;;;10360585;28;20036;-63
2022/08/24 10:35:46;;;;;;;5.07;3.72;;;24.00;91.60;;;;;;10355849;28;20033;-63
2022/08/24 10:41:24;;;;;;;4.77;3.90;;;24.00;91.50;;;;;;10374481;28;20163;-63
2022/08/24 10:46:50;;;;;;;5.53;3.50;;;24.10;91.70;;;;;;10366991;28;20373;-62
2022/08/24 10:52:02;;;;;;;4.75;4.03;;;24.10;91.60;;;;;;10364543;28;20466;-62
2022/08/24 10:57:07;;;;;;;4.97;3.17;;;24.20;91.50;;;;;;10374522;28;20036;-62
2022/08/24 11:02:27;;;;;;;4.70;2.92;;;24.20;91.50;;;;;;10359656;28;20436;-63
2022/08/24 11:07:28;;;;;;;3.67;2.65;;;24.30;91.60;;;;;;10359315;28;20087;-61
2022/08/24 11:12:32;;;;;;;4.53;2.75;;;24.30;91.50;;;;;;10363969;28;20044;-62
2022/08/24 11:17:34;;;;;;;4.70;3.20;;;24.40;91.40;;;;;;10361279;28;20488;-63
2022/08/24 11:22:56;;;;;;;4.53;2.85;;;24.50;91.40;;;;;;10373415;28;20033;-66
2022/08/24 11:28:18;;;;;;;4.38;3.63;;;24.50;91.30;;;;;;10359907;28;20342;-61
2022/08/24 11:33:30;;;;;;;4.47;3.28;;;25.00;91.30;;;;;;10367220;28;20020;-60
2022/08/24 11:38:33;;;;;;;3.67;2.92;;;25.20;91.10;;;;;;10366280;28;20052;-61
2022/08/24 11:43:40;;;;;;;2.95;2.33;;;25.30;91.00;;;;;;10374119;28;20117;-61
2022/08/24 11:49:07;;;;;;;7.35;2.53;;;25.20;91.00;;;;;;10371412;28;20041;-61
2022/08/24 11:54:41;;;;;;;2.70;2.05;;;25.20;91.10;;;;;;10371851;28;20596;-62
2022/08/24 11:59:45;;;;;;;2.63;2.42;;;25.20;91.10;;;;;;10365314;28;20660;-61
2022/08/24 12:04:58;;;;;;;2.80;2.35;;;25.20;91.10;;;;;;10374788;28;20032;-60
2022/08/24 12:10:25;;;;;;;3.72;2.70;;;25.20;91.20;;;;;;10371892;28;20040;-61
2022/08/24 12:15:53;;;;;;;3.10;2.80;;;25.20;91.20;;;;;;10355144;28;20860;-68
2022/08/24 12:20:55;;;;;;;2.50;2.30;;;25.20;91.30;;;;;;10365445;28;20061;-61
2022/08/24 12:26:08;;;;;;;2.55;2.35;;;25.20;91.20;;;;;;10375651;28;20044;-61
2022/08/24 12:31:35;;;;;;;3.35;2.63;;;25.30;91.20;;;;;;10375571;28;20041;-61
2022/08/24 12:36:49;;;;;;;3.00;2.70;;;25.30;91.10;;;;;;10368746;28;20537;-62
2022/08/24 12:42:21;;;;;;;2.67;2.40;;;25.40;91.00;;;;;;10373794;28;20911;-62
2022/08/24 12:47:56;;;;;;;3.10;2.40;;;25.50;90.90;;;;;;10374035;28;20032;-61
2022/08/24 12:53:15;;;;;;;3.05;2.40;;;25.50;90.90;;;;;;10366005;28;20587;-63
2022/08/24 12:58:38;;;;;;;3.28;2.40;;;25.50;90.90;;;;;;10362292;28;20278;-63
2022/08/24 13:03:42;;;;;;;3.10;2.22;;;25.60;90.80;;;;;;10367065;28;20040;-61
2022/08/24 13:08:47;;;;;;;3.13;2.17;;;25.70;90.80;;;;;;10367262;28;20151;-63
2022/08/24 13:13:54;;;;;;;2.63;2.13;;;25.70;90.80;;;;;;10365157;28;20123;-62
2022/08/24 13:19:22;;;;;;;2.25;2.05;;;25.70;90.80;;;;;;10365185;28;20568;-60
2022/08/24 13:24:29;;;;;;;2.28;2.08;;;25.80;91.10;;;;;;10362692;28;20131;-64
2022/08/24 13:29:33;;;;;;;2.70;2.38;;;25.80;91.00;;;;;;10376358;28;20691;-62
2022/08/24 13:34:39;;;;;;;1.98;1.75;;;26.00;91.20;;;;;;10358844;28;20131;-62
2022/08/24 13:39:39;;;;;;;2.10;1.80;;;26.00;90.80;;;;;;10369348;28;20056;-62
2022/08/24 13:44:55;;;;;;;2.10;1.60;;;26.20;90.70;;;;;;10365933;28;20590;-62
2022/08/24 13:50:26;;;;;;;2.35;1.90;;;26.30;90.60;;;;;;10367328;28;20041;-62
2022/08/24 13:55:45;;;;;;;4.82;2.10;;;26.50;90.40;;;;;;10365412;28;20043;-61
2022/08/24 14:01:21;;;;;;;2.00;1.80;;;26.60;90.10;;;;;;10361874;28;20571;-63
2022/08/24 14:06:30;;;;;;;2.00;1.90;;;26.70;90.10;;;;;;10374702;28;20029;-62
2022/08/24 14:12:00;;;;;;;2.60;1.98;;;26.70;90.20;;;;;;10372590;28;20080;-61
2022/08/24 14:23:07;;;;;;;3.67;1.88;;;26.90;89.90;;;;;;10368352;28;20491;-62
2022/08/24 14:28:35;;;;;;;5.80;2.25;;;27.00;89.60;;;;;;10367031;28;20040;-61
2022/08/24 14:33:48;;;;;;;2.65;1.90;;;27.10;89.10;;;;;;10359201;28;21075;-61
2022/08/24 14:39:07;;;;;;;1.83;1.63;;;27.30;89.70;;;;;;10355983;28;20612;-61
2022/08/24 14:44:48;;;;;;;2.00;1.75;;;27.40;89.30;;;;;;10341654;28;20042;-63
2022/08/24 14:50:03;;;;;;;2.00;1.77;;;27.40;89.70;;;;;;10364988;28;20041;-61
2022/08/24 14:55:07;;;;;;;1.52;1.40;;;27.30;90.00;;;;;;10365399;28;20068;-63
2022/08/24 15:00:12;;;;;;;1.85;1.55;;;27.20;90.20;;;;;;10373350;28;20095;-63
2022/08/24 15:05:33;;;;;;;3.10;1.60;;;27.20;90.30;;;;;;10366185;28;20130;-63
2022/08/24 15:10:51;;;;;;;1.88;1.70;;;27.20;90.40;;;;;;10347378;28;20037;-62
2022/08/24 15:16:19;;;;;;;5.80;2.72;;;27.30;88.60;;;;;;10358879;28;20626;-62
2022/08/24 15:21:26;;;;;;;2.33;1.60;;;27.50;88.60;;;;;;10362001;28;20029;-62
2022/08/24 15:27:06;;;;;;;3.97;1.90;;;27.60;88.00;;;;;;10366198;28;20146;-62
2022/08/24 15:32:11;;;;;;;1.90;1.70;;;27.70;88.40;;;;;;10363078;28;20314;-63
2022/08/24 15:37:33;;;;;;;2.65;1.85;;;27.70;88.60;;;;;;10353394;28;20142;-63
2022/08/24 15:42:35;;;;;;;2.00;1.60;;;27.60;88.90;;;;;;10317041;28;20032;-62
2022/08/24 15:47:42;;;;;;;2.35;1.77;;;27.60;89.40;;;;;;10320711;28;20014;-63
2022/08/24 15:52:54;;;;;;;1.88;1.42;;;27.50;89.60;;;;;;10309837;28;20144;-62
2022/08/24 15:57:55;;;;;;;2.17;1.92;;;27.50;90.00;;;;;;10313533;28;20457;-62
2022/08/24 16:03:24;;;;;;;2.10;1.50;;;27.50;90.00;;;;;;10311005;28;20148;-62
2022/08/24 16:08:24;;;;;;;2.13;1.73;;;27.50;90.00;;;;;;10303559;28;20053;-63
2022/08/24 16:13:31;;;;;;;2.63;1.80;;;27.50;90.10;;;;;;10309698;28;20029;-63
2022/08/24 16:18:51;;;;;;;2.28;1.60;;;27.50;90.20;;;;;;10305986;28;20135;-63
2022/08/24 16:23:59;;;;;;;4.45;1.65;;;27.50;90.30;;;;;;10323755;28;20053;-63
2022/08/24 16:29:00;;;;;;;1.70;1.60;;;27.50;90.30;;;;;;10318641;28;20077;-62
2022/08/24 16:34:28;;;;;;;1.95;1.60;;;27.40;90.30;;;;;;10318791;28;20319;-63
2022/08/24 16:39:30;;;;;;;2.25;1.65;;;27.40;90.40;;;;;;10353762;28;21272;-63
2022/08/24 16:44:36;;;;;;;1.80;1.70;;;27.40;90.50;;;;;;10368762;28;20889;-63
2022/08/24 16:49:39;;;;;;;1.93;1.67;;;27.40;90.50;;;;;;10371842;28;20958;-62
2022/08/24 16:54:39;;;;;;;2.15;1.50;;;27.30;90.50;;;;;;10362797;28;20440;-63
2022/08/24 16:59:43;;;;;;;1.83;1.58;;;27.30;90.50;;;;;;10366227;28;20072;-62
2022/08/24 17:04:44;;;;;;;2.03;1.60;;;27.30;90.60;;;;;;10363062;28;20060;-62
2022/08/24 17:09:45;;;;;;;2.00;1.77;;;27.20;90.70;;;;;;10366590;28;20036;-63
2022/08/24 17:14:46;;;;;;;1.65;1.55;;;27.20;90.80;;;;;;10337909;28;20683;-63
2022/08/24 17:19:49;;;;;;;1.77;1.40;;;27.10;90.80;;;;;;10367538;28;20596;-63
2022/08/24 17:24:51;;;;;;;1.67;1.58;;;27.10;90.70;;;;;;10361437;28;20072;-63
2022/08/24 17:29:52;;;;;;;1.98;1.48;;;27.10;91.00;;;;;;10355214;28;20541;-61
2022/08/24 17:34:52;;;;;;;1.70;1.30;;;27.10;90.80;;;;;;10362053;28;20540;-63
2022/08/24 17:39:56;;;;;;;1.75;1.27;;;27.00;90.80;;;;;;10366739;28;20611;-62
2022/08/24 17:44:57;;;;;;;1.75;1.52;;;27.00;90.80;;;;;;10365236;28;20586;-62
2022/08/24 17:49:59;;;;;;;1.70;1.60;;;27.00;90.90;;;;;;10373450;28;20045;-61
2022/08/24 17:55:00;;;;;;;1.60;1.50;;;26.90;90.90;;;;;;10357709;28;20032;-63
2022/08/24 18:00:01;;;;;;;2.47;1.60;;;26.90;91.00;;;;;;10359782;28;20100;-64
2022/08/24 18:05:02;;;;;;;2.13;1.77;;;26.80;91.00;;;;;;10357089;28;20105;-64
2022/08/24 18:10:07;;;;;;;3.03;1.92;;;26.80;90.80;;;;;;10363658;28;20044;-64
2022/08/24 18:15:08;;;;;;;5.95;2.40;;;26.70;90.70;;;;;;10357776;28;20025;-65
2022/08/24 18:20:11;;;;;;;3.35;2.30;;;26.60;91.00;;;;;;10359743;28;20639;-65
2022/08/24 18:25:14;;;;;;;4.63;2.00;;;26.50;90.80;;;;;;10366286;28;20372;-64
2022/08/24 18:30:21;;;;;;;4.85;2.40;;;26.40;91.00;;;;;;10354463;28;20386;-64
2022/08/24 18:35:23;;;;;;;4.60;2.30;;;26.30;91.40;;;;;;10356589;28;20025;-64
2022/08/24 18:40:25;;;;;;;4.82;2.35;;;26.20;91.20;;;;;;10356839;28;20048;-64
2022/08/24 18:45:30;;;;;;;3.20;2.03;;;26.10;91.40;;;;;;10359548;28;20582;-64
2022/08/24 18:50:33;;;;;;;4.43;2.50;;;26.00;91.60;;;;;;10355443;28;20041;-64
2022/08/24 18:55:35;;;;;;;4.47;3.20;;;25.90;91.80;;;;;;10359992;28;20056;-64
2022/08/24 19:00:38;;;;;;;5.47;4.03;;;25.80;91.90;;;;;;10357473;28;20140;-64
2022/08/24 19:05:39;;;;;;;5.70;4.10;;;25.70;92.10;;;;;;10346445;28;20048;-64
2022/08/24 19:10:40;;;;;;;7.13;4.00;;;25.60;92.20;;;;;;10387443;28;20140;-64
2022/08/24 19:15:41;;;;;;;4.95;4.43;;;25.60;92.30;;;;;;10431051;28;20108;-64
2022/08/24 19:20:47;;;;;;;6.45;4.10;;;25.50;92.50;;;;;;10428843;28;20033;-64
2022/08/24 19:25:48;;;;;;;9.02;3.95;;;25.40;92.60;;;;;;10429833;28;20017;-64
2022/08/24 19:30:56;;;;;;;5.65;4.05;;;25.30;92.80;;;;;;10432787;28;20037;-63
2022/08/24 19:35:58;;;;;;;6.00;4.70;;;25.20;93.00;;;;;;10430114;28;20017;-63
2022/08/24 19:40:59;;;;;;;4.80;4.40;;;25.10;93.30;;;;;;10432793;28;20509;-64
2022/08/24 19:46:05;;;;;;;6.50;4.32;;;25.00;93.50;;;;;;10428773;28;20029;-63
2022/08/24 19:51:08;;;;;;;8.90;4.63;;;24.90;93.60;;;;;;10439701;28;20044;-64
2022/08/24 19:56:10;;;;;;;7.05;4.55;;;24.80;93.90;;;;;;10438772;28;20029;-64
2022/08/24 20:01:15;;;;;;;8.02;4.75;;;24.70;94.00;;;;;;10440748;28;20445;-64
2022/08/24 20:06:20;;;;;;;7.45;4.30;;;24.70;94.10;;;;;;10437867;28;20456;-64
2022/08/24 20:11:21;;;;;;;7.90;4.95;;;24.70;94.20;;;;;;10441677;28;20043;-62
2022/08/24 20:16:35;;;;;;;5.45;4.95;;;24.60;94.20;;;;;;10437130;28;20043;-62
2022/08/24 20:21:36;;;;;;;7.10;5.63;;;24.60;94.50;;;;;;10417636;28;20370;-63
2022/08/24 20:26:41;;;;;;;7.22;6.20;;;24.50;94.40;;;;;;10438117;28;20060;-63
2022/08/24 20:31:44;;;;;;;8.00;6.25;;;24.40;94.70;;;;;;10436765;28;20044;-62
2022/08/24 20:36:48;;;;;;;6.85;5.80;;;24.20;94.80;;;;;;10439001;28;20091;-63
2022/08/24 20:41:51;;;;;;;8.82;6.28;;;24.20;95.00;;;;;;10435591;28;20056;-62
2022/08/24 20:46:52;;;;;;;8.23;7.20;;;24.10;95.00;;;;;;10437132;28;20040;-62
2022/08/24 20:51:54;;;;;;;7.95;6.80;;;24.10;95.10;;;;;;10437319;28;20107;-62
2022/08/24 20:56:55;;;;;;;13.77;7.18;;;24.10;95.20;;;;;;10438568;28;20056;-62
2022/08/24 21:01:55;;;;;;;8.95;7.75;;;23.90;95.30;;;;;;10436215;28;20042;-62
2022/08/24 21:06:56;;;;;;;11.50;8.07;;;23.90;95.50;;;;;;10443962;28;20381;-62
2022/08/24 21:11:57;;;;;;;11.48;8.43;;;23.90;95.60;;;;;;10435365;28;20047;-67
2022/08/24 21:16:59;;;;;;;14.77;8.60;;;23.80;95.70;;;;;;10438367;28;20021;-70
2022/08/24 21:22:00;;;;;;;9.23;6.85;;;23.70;95.80;;;;;;10405806;28;20037;-63
2022/08/24 21:27:01;;;;;;;6.88;5.95;;;23.90;95.70;;;;;;10439570;28;20052;-63
2022/08/24 21:37:22;;;;;;;7.15;5.53;;;24.20;95.10;;;;;;10435498;28;20048;-63
2022/08/24 21:42:22;;;;;;;9.32;5.53;;;24.30;94.90;;;;;;10395209;28;20040;-63
2022/08/24 21:47:23;;;;;;;7.93;5.43;;;24.40;94.70;;;;;;10396009;28;20103;-62
2022/08/24 21:52:24;;;;;;;7.93;4.93;;;24.50;94.60;;;;;;10393233;28;20034;-63
2022/08/24 21:57:26;;;;;;;7.85;4.95;;;24.50;94.50;;;;;;10390419;28;20429;-63
2022/08/24 22:02:29;;;;;;;7.20;5.25;;;24.50;94.40;;;;;;10391768;28;20038;-63
2022/08/24 22:07:30;;;;;;;5.32;4.68;;;24.60;94.40;;;;;;10394860;28;20033;-63
2022/08/24 22:12:30;;;;;;;6.32;4.75;;;24.60;94.30;;;;;;10392500;28;20485;-63
2022/08/24 22:17:31;;;;;;;5.60;4.38;;;24.60;94.20;;;;;;10393770;28;20029;-63
2022/08/24 22:22:32;;;;;;;5.22;4.55;;;24.60;94.20;;;;;;10390982;28;20025;-63
2022/08/24 22:27:34;;;;;;;6.47;5.15;;;24.60;94.20;;;;;;10370519;28;20037;-62
2022/08/24 22:32:35;;;;;;;5.75;4.55;;;24.60;94.10;;;;;;10385947;28;20487;-63
2022/08/24 22:37:35;;;;;;;5.43;4.93;;;24.60;94.10;;;;;;10400010;28;20044;-63
2022/08/24 22:42:36;;;;;;;7.07;4.97;;;24.60;94.00;;;;;;10432188;28;20041;-63
2022/08/24 22:47:37;;;;;;;6.10;4.90;;;24.60;94.00;;;;;;10434876;28;20037;-63
2022/08/24 22:52:37;;;;;;;5.78;5.20;;;24.60;94.00;;;;;;10433478;28;20037;-63
2022/08/24 22:57:38;;;;;;;5.07;4.55;;;24.50;94.00;;;;;;10433969;28;20028;-63
2022/08/24 23:02:39;;;;;;;6.28;5.32;;;24.50;94.00;;;;;;10428483;28;20591;-63
2022/08/24 23:07:40;;;;;;;6.03;4.95;;;24.50;94.00;;;;;;10426960;28;20083;-63
2022/08/24 23:12:41;;;;;;;6.43;5.45;;;24.50;93.90;;;;;;10432176;28;20043;-63
2022/08/24 23:17:41;;;;;;;5.60;5.10;;;24.50;93.90;;;;;;10430916;28;20029;-63
2022/08/24 23:22:42;;;;;;;4.97;4.53;;;24.50;93.90;;;;;;10433713;28;20025;-63
2022/08/24 23:27:43;;;;;;;6.75;4.97;;;24.40;93.90;;;;;;10447099;28;20092;-63
2022/08/24 23:32:44;;;;;;;5.35;4.85;;;24.40;93.90;;;;;;10425477;28;20040;-63
2022/08/24 23:37:44;;;;;;;6.75;4.72;;;24.40;93.90;;;;;;10444515;28;20044;-63
2022/08/24 23:42:45;;;;;;;7.28;4.80;;;24.40;93.80;;;;;;10430824;28;20543;-63
2022/08/24 23:47:46;;;;;;;5.20;4.70;;;24.40;93.80;;;;;;10424095;28;20030;-63
2022/08/24 23:52:46;;;;;;;5.45;4.50;;;24.30;93.80;;;;;;10421239;28;20564;-63
2022/08/24 23:57:47;;;;;;;5.30;4.78;;;24.30;93.80;;;;;;10410453;28;20092;-63
